Time;durP1;ratioP1;P1;durP2;ratioP2;P2;SDS_P1;SDS_P2;PMS_P1;PMS_P2;Temp;Humidity;BMP_temperature;BMP_pressure;BME280_temperature;BME280_humidity;BME280_pressure;Samples;Min_cycle;Max_cycle;Signal;HPM_P1;HPM_P2
2022/08/28 17:28:27;;;;;;;4.28;2.40;;;24.90;99.90;;;;;;5943454;23;20128;-91
2022/08/28 17:31:22;;;;;;;5.85;2.33;;;25.00;99.90;;;;;;4932368;29;20071;-92
2022/08/28 17:52:14;;;;;;;4.35;2.30;;;24.40;99.90;;;;;;4622526;30;20046;-90
2022/08/28 17:55:26;;;;;;;9.73;2.30;;;24.30;99.90;;;;;;4655424;30;20049;-91
2022/08/28 17:57:52;;;;;;;3.55;2.20;;;24.30;99.90;;;;;;4753299;30;20048;-90
2022/08/28 18:29:05;;;;;;;;;;;;;;;;;;;;;
2022/08/28 18:44:43;;;;;;;7.90;2.30;;;22.70;99.90;;;;;;6236682;22;2477061;-91
2022/08/28 19:11:35;;;;;;;;;;;;;;;;;;;;;
2022/08/28 19:48:51;;;;;;;5.93;2.60;;;21.80;99.90;;;;;;6081762;22;5001758;-91
2022/08/28 19:51:18;;;;;;;7.03;2.63;;;22.30;99.90;;;;;;6260358;23;20004;-91
2022/08/28 19:53:49;;;;;;;4.97;2.50;;;22.00;99.90;;;;;;6210769;23;20157;-91
2022/08/28 19:56:23;;;;;;;6.22;2.30;;;21.00;99.90;;;;;;6260878;23;20041;-89
2022/08/28 19:58:50;;;;;;;3.97;2.55;;;20.90;99.90;;;;;;6263310;23;20031;-90
2022/08/28 20:01:28;;;;;;;8.10;2.50;;;20.90;99.90;;;;;;6260092;23;20008;-90
2022/08/28 20:03:58;;;;;;;8.18;2.60;;;20.90;99.90;;;;;;6261209;23;20142;-89
2022/08/28 20:06:25;;;;;;;10.00;2.50;;;20.80;99.90;;;;;;6260520;23;20004;-90
2022/08/28 20:09:11;;;;;;;4.82;2.58;;;21.20;99.90;;;;;;6235768;23;20007;-90
2022/08/28 20:11:41;;;;;;;6.13;2.72;;;22.70;99.90;;;;;;6261059;23;20058;-90
2022/08/28 20:14:14;;;;;;;6.35;2.53;;;20.70;99.90;;;;;;6259073;23;20079;-89
2022/08/28 20:16:52;;;;;;;9.38;2.67;;;21.10;99.90;;;;;;6314728;22;20086;-90
2022/08/28 20:19:18;;;;;;;;;;;21.30;99.90;;;;;;6298787;22;20080;-89
2022/08/28 20:21:49;;;;;;;8.45;2.70;;;20.50;99.90;;;;;;6298217;22;19903;-90
2022/08/28 20:24:28;;;;;;;7.70;2.90;;;21.10;99.90;;;;;;6289661;22;20006;-91
2022/08/28 20:26:54;;;;;;;6.95;3.10;;;20.70;99.90;;;;;;6266462;22;20015;-89
2022/08/28 20:29:29;;;;;;;7.97;2.95;;;20.80;99.90;;;;;;6315641;22;20004;-91
2022/08/28 20:31:57;;;;;;;7.63;3.10;;;22.30;99.90;;;;;;6315162;22;20377;-90
2022/08/28 20:34:41;;;;;;;5.88;3.30;;;21.10;99.90;;;;;;6316211;22;20073;-91
2022/08/28 20:37:07;;;;;;;9.77;3.35;;;20.70;99.90;;;;;;6314977;22;20454;-91
2022/08/28 20:39:36;;;;;;;12.02;3.28;;;21.50;99.90;;;;;;6314683;22;20037;-91
2022/08/28 20:42:02;;;;;;;12.13;3.08;;;20.00;99.90;;;;;;6313927;22;20007;-92
2022/08/28 20:44:32;;;;;;;15.60;3.08;;;20.40;99.90;;;;;;6315282;22;20003;-90
2022/08/28 20:46:58;;;;;;;10.40;3.35;;;20.10;99.90;;;;;;6303740;22;20015;-90
2022/08/28 20:49:24;;;;;;;10.07;3.20;;;21.00;99.90;;;;;;6225189;22;20034;-90
2022/08/28 20:51:59;;;;;;;8.90;3.30;;;20.60;99.90;;;;;;6251793;22;20527;-92
2022/08/28 20:54:35;;;;;;;12.38;3.17;;;21.00;99.90;;;;;;6259936;22;20031;-92
2022/08/28 20:57:07;;;;;;;9.98;3.28;;;19.90;99.90;;;;;;6258372;22;20019;-92
2022/08/28 20:59:34;;;;;;;8.60;3.50;;;19.90;99.90;;;;;;6257324;22;20007;-91
2022/08/28 21:02:04;;;;;;;10.32;3.40;;;20.60;99.90;;;;;;6258870;22;20004;-92
2022/08/28 21:04:40;;;;;;;10.38;3.38;;;19.70;99.90;;;;;;6259737;22;20000;-90
2022/08/28 21:07:08;;;;;;;12.38;3.60;;;19.70;99.90;;;;;;6258279;22;20007;-91
2022/08/28 21:09:34;;;;;;;11.65;3.35;;;20.90;99.90;;;;;;6256024;22;20011;-90
2022/08/28 21:12:02;;;;;;;11.30;3.67;;;20.30;99.90;;;;;;6284288;22;20056;-90
2022/08/28 21:15:00;;;;;;;11.88;3.70;;;19.90;99.90;;;;;;6284233;22;20320;-92
2022/08/28 21:17:28;;;;;;;13.85;3.50;;;19.60;99.90;;;;;;6194272;23;20016;-92
2022/08/28 21:19:55;;;;;;;9.13;3.25;;;20.60;99.90;;;;;;6193525;23;20062;-90
2022/08/28 21:22:23;;;;;;;15.90;3.53;;;20.20;99.90;;;;;;6194077;23;20027;-91
2022/08/28 21:24:53;;;;;;;6.30;3.20;;;19.50;99.90;;;;;;6199735;23;20049;-91
2022/08/28 21:27:34;;;;;;;;;;;;;;;;;;;;;
2022/08/28 21:30:05;;;;;;;5.72;2.85;;;19.50;99.90;;;;;;6225386;23;20036;-91
2022/08/28 21:32:54;;;;;;;9.55;4.00;;;19.40;99.90;;;;;;6201198;23;20004;-91
2022/08/28 21:35:21;;;;;;;12.40;3.85;;;19.60;99.90;;;;;;6200835;23;20008;-91
2022/08/28 21:38:14;;;;;;;11.63;3.40;;;19.30;99.90;;;;;;6195082;23;20005;-91
2022/08/28 21:40:42;;;;;;;10.93;3.55;;;19.60;99.90;;;;;;6170496;23;20013;-91
2022/08/28 21:43:09;;;;;;;12.10;3.35;;;20.00;99.90;;;;;;6170974;23;20001;-89
2022/08/28 21:46:01;;;;;;;9.15;3.50;;;19.30;99.90;;;;;;6196784;23;20036;-92
2022/08/28 21:48:36;;;;;;;18.40;3.60;;;19.30;99.90;;;;;;6224908;23;20012;-90
2022/08/28 21:51:19;;;;;;;10.27;3.63;;;19.40;99.90;;;;;;6200961;23;20001;-90
2022/08/28 21:54:12;;;;;;;12.10;3.67;;;19.10;99.90;;;;;;6212650;23;20031;-91
2022/08/28 21:56:39;;;;;;;13.50;3.90;;;19.10;99.90;;;;;;6200958;23;20051;-91
2022/08/28 21:59:31;;;;;;;10.93;3.78;;;19.20;99.90;;;;;;6213701;23;20032;-90
2022/08/28 22:02:06;;;;;;;15.90;4.25;;;19.00;99.90;;;;;;6213336;23;20004;-91
2022/08/28 22:04:35;;;;;;;9.32;4.00;;;19.70;99.90;;;;;;6245102;23;20432;-91
2022/08/28 22:07:05;;;;;;;10.25;3.40;;;19.20;99.90;;;;;;6257526;23;20001;-91
2022/08/28 22:09:40;;;;;;;13.20;3.92;;;19.70;99.90;;;;;;6284397;22;20060;-92
2022/08/28 22:12:09;;;;;;;11.85;3.50;;;19.10;99.90;;;;;;6295603;22;20460;-90
2022/08/28 22:14:37;;;;;;;12.00;3.60;;;19.00;99.90;;;;;;6319840;22;20056;-91
2022/08/28 22:17:07;;;;;;;14.27;3.63;;;19.50;99.90;;;;;;6323488;22;20011;-90
2022/08/28 22:19:33;;;;;;;10.55;3.55;;;19.90;99.90;;;;;;6320475;22;20006;-90
2022/08/28 22:24:43;;;;;;;11.40;3.75;;;18.90;99.90;;;;;;6319528;22;20493;-91
2022/08/28 22:27:13;;;;;;;11.55;3.60;;;18.90;99.90;;;;;;6317893;22;20003;-90
2022/08/28 22:29:39;;;;;;;10.85;4.10;;;19.10;99.90;;;;;;6294094;22;20007;-90
2022/08/28 22:32:06;;;;;;;12.30;3.80;;;19.00;99.90;;;;;;6316884;22;20003;-89
2022/08/28 22:34:44;;;;;;;11.52;3.85;;;18.60;99.90;;;;;;6313236;22;20006;-90
2022/08/28 22:37:11;;;;;;;;;;;18.60;99.90;;;;;;6286177;22;20086;-91
2022/08/28 22:39:38;;;;;;;12.90;4.18;;;18.50;99.90;;;;;;6287732;22;19977;-90
2022/08/28 22:42:18;;;;;;;9.70;3.95;;;18.70;99.90;;;;;;6312568;22;20007;-90
2022/08/28 22:44:44;;;;;;;10.23;3.70;;;;;;;;;;6287073;22;20071;-91
2022/08/28 22:47:13;;;;;;;9.77;3.88;;;18.50;99.90;;;;;;6314315;22;20011;-90
2022/08/28 22:49:41;;;;;;;9.40;4.00;;;18.50;99.90;;;;;;6312572;22;20011;-90
2022/08/28 22:52:10;;;;;;;13.07;4.20;;;18.50;99.90;;;;;;6311620;22;20343;-90
2022/08/28 22:54:36;;;;;;;10.65;3.70;;;19.10;99.90;;;;;;6311927;22;20003;-90
2022/08/28 22:57:04;;;;;;;9.45;3.60;;;18.80;99.90;;;;;;6314056;22;20043;-90
2022/08/28 22:59:38;;;;;;;12.93;3.73;;;18.80;99.90;;;;;;6312968;22;19999;-91
2022/08/28 23:02:10;;;;;;;12.88;3.80;;;18.80;99.90;;;;;;6312879;22;20701;-92
2022/08/28 23:04:37;;;;;;;9.88;3.90;;;18.30;99.90;;;;;;6313469;22;19999;-91
2022/08/28 23:07:04;;;;;;;10.20;3.28;;;18.80;99.90;;;;;;6311024;22;20006;-90
2022/08/28 23:09:32;;;;;;;12.27;4.10;;;18.30;99.90;;;;;;6310154;22;20007;-91
2022/08/28 23:12:00;;;;;;;6.50;3.50;;;18.50;99.90;;;;;;6313487;22;20006;-90
2022/08/28 23:14:26;;;;;;;10.50;3.58;;;18.40;99.90;;;;;;6317824;22;19999;-90
2022/08/28 23:16:54;;;;;;;8.73;3.88;;;19.00;99.90;;;;;;6316637;22;20011;-91
2022/08/28 23:19:20;;;;;;;;;;;18.90;99.90;;;;;;6318678;22;20003;-90
2022/08/28 23:21:47;;;;;;;10.13;4.10;;;18.10;99.90;;;;;;6317762;22;19903;-90
2022/08/28 23:24:15;;;;;;;12.43;4.13;;;18.20;99.90;;;;;;6315082;22;20082;-90
2022/08/28 23:26:42;;;;;;;12.95;3.78;;;;;;;;;;6291071;22;20003;-90
2022/08/28 23:29:09;;;;;;;11.65;4.10;;;17.90;99.90;;;;;;6313588;22;19999;-91
2022/08/28 23:31:46;;;;;;;11.63;4.10;;;18.00;99.90;;;;;;6314917;22;20014;-90
2022/08/28 23:34:13;;;;;;;10.75;3.85;;;18.00;99.90;;;;;;6317100;22;19999;-93
2022/08/28 23:36:49;;;;;;;10.00;4.32;;;18.00;99.90;;;;;;6314437;22;20011;-91
2022/08/28 23:39:17;;;;;;;16.08;4.13;;;17.90;99.90;;;;;;6288745;22;20011;-92
2022/08/28 23:41:44;;;;;;;;;;;18.10;99.90;;;;;;6312698;22;20427;-91
2022/08/28 23:44:11;;;;;;;11.38;4.53;;;;;;;;;;6287728;22;19898;-91
2022/08/28 23:46:42;;;;;;;13.00;3.90;;;17.80;99.90;;;;;;6313009;22;19999;-90
2022/08/28 23:49:13;;;;;;;13.45;3.95;;;17.70;99.90;;;;;;6314608;22;20027;-89
2022/08/28 23:51:44;;;;;;;11.07;3.95;;;17.70;99.90;;;;;;6312606;22;20044;-91
2022/08/28 23:54:13;;;;;;;11.63;4.13;;;17.70;99.90;;;;;;6262891;22;20038;-90
2022/08/28 23:56:39;;;;;;;8.75;3.58;;;;;;;;;;6308219;22;20011;-90
2022/08/28 23:59:09;;;;;;;15.77;4.40;;;17.80;99.90;;;;;;6310536;22;20003;-90
